sensor_id;sensor_type;location;lat;lon;timestamp;P1;durP1;ratioP1;P2;durP2;ratioP2
13061;SDS011;6597;52.218;9.882;2023-03-01T00:01:52;13.43;;;7.23;;
13061;SDS011;6597;52.218;9.882;2023-03-01T00:04:18;11.77;;;5.77;;
13061;SDS011;6597;52.218;9.882;2023-03-01T00:06:45;10.13;;;5.30;;
13061;SDS011;6597;52.218;9.882;2023-03-01T00:09:11;19.10;;;6.27;;
13061;SDS011;6597;52.218;9.882;2023-03-01T00:11:38;14.07;;;5.93;;
13061;SDS011;6597;52.218;9.882;2023-03-01T00:14:05;11.33;;;5.77;;
13061;SDS011;6597;52.218;9.882;2023-03-01T00:16:32;10.83;;;5.20;;
13061;SDS011;6597;52.218;9.882;2023-03-01T00:19:01;11.90;;;6.07;;
13061;SDS011;6597;52.218;9.882;2023-03-01T00:21:28;13.20;;;5.00;;
13061;SDS011;6597;52.218;9.882;2023-03-01T00:23:55;8.67;;;5.23;;
13061;SDS011;6597;52.218;9.882;2023-03-01T00:26:22;13.03;;;5.77;;
13061;SDS011;6597;52.218;9.882;2023-03-01T00:28:50;10.63;;;5.60;;
13061;SDS011;6597;52.218;9.882;2023-03-01T00:31:18;9.80;;;5.10;;
13061;SDS011;6597;52.218;9.882;2023-03-01T00:33:45;13.77;;;5.10;;
13061;SDS011;6597;52.218;9.882;2023-03-01T00:36:14;12.70;;;4.90;;
13061;SDS011;6597;52.218;9.882;2023-03-01T00:38:42;13.43;;;5.83;;
13061;SDS011;6597;52.218;9.882;2023-03-01T00:41:10;15.43;;;6.13;;
13061;SDS011;6597;52.218;9.882;2023-03-01T00:43:38;14.13;;;6.10;;
13061;SDS011;6597;52.218;9.882;2023-03-01T00:46:06;11.80;;;5.40;;
13061;SDS011;6597;52.218;9.882;2023-03-01T00:48:34;12.00;;;4.80;;
13061;SDS011;6597;52.218;9.882;2023-03-01T00:51:05;9.00;;;5.27;;
13061;SDS011;6597;52.218;9.882;2023-03-01T00:53:34;11.33;;;5.27;;
13061;SDS011;6597;52.218;9.882;2023-03-01T00:56:02;11.30;;;6.07;;
13061;SDS011;6597;52.218;9.882;2023-03-01T00:58:30;10.37;;;5.80;;
13061;SDS011;6597;52.218;9.882;2023-03-01T01:00:56;9.57;;;5.20;;
13061;SDS011;6597;52.218;9.882;2023-03-01T01:03:23;10.97;;;5.80;;
13061;SDS011;6597;52.218;9.882;2023-03-01T01:05:50;13.13;;;6.60;;
13061;SDS011;6597;52.218;9.882;2023-03-01T01:08:17;14.00;;;5.27;;
13061;SDS011;6597;52.218;9.882;2023-03-01T01:10:47;10.30;;;5.33;;
13061;SDS011;6597;52.218;9.882;2023-03-01T01:13:13;11.70;;;5.57;;
13061;SDS011;6597;52.218;9.882;2023-03-01T01:15:40;10.33;;;5.67;;
13061;SDS011;6597;52.218;9.882;2023-03-01T01:18:07;11.30;;;6.17;;
13061;SDS011;6597;52.218;9.882;2023-03-01T01:20:34;7.13;;;4.70;;
13061;SDS011;6597;52.218;9.882;2023-03-01T01:23:02;9.00;;;5.53;;
13061;SDS011;6597;52.218;9.882;2023-03-01T01:25:33;16.17;;;6.40;;
13061;SDS011;6597;52.218;9.882;2023-03-01T01:28:02;11.40;;;5.20;;
13061;SDS011;6597;52.218;9.882;2023-03-01T01:30:29;9.20;;;5.60;;
13061;SDS011;6597;52.218;9.882;2023-03-01T01:32:55;10.57;;;5.50;;
13061;SDS011;6597;52.218;9.882;2023-03-01T01:35:22;9.23;;;5.30;;
13061;SDS011;6597;52.218;9.882;2023-03-01T01:37:48;8.67;;;5.57;;
13061;SDS011;6597;52.218;9.882;2023-03-01T01:40:15;8.10;;;5.33;;
13061;SDS011;6597;52.218;9.882;2023-03-01T01:42:42;9.40;;;5.77;;
13061;SDS011;6597;52.218;9.882;2023-03-01T01:45:30;8.77;;;4.50;;
13061;SDS011;6597;52.218;9.882;2023-03-01T01:48:00;11.23;;;5.23;;
13061;SDS011;6597;52.218;9.882;2023-03-01T01:50:30;8.37;;;5.23;;
13061;SDS011;6597;52.218;9.882;2023-03-01T01:53:03;12.80;;;6.00;;
13061;SDS011;6597;52.218;9.882;2023-03-01T01:55:32;9.43;;;5.63;;
13061;SDS011;6597;52.218;9.882;2023-03-01T01:58:02;12.13;;;6.10;;
13061;SDS011;6597;52.218;9.882;2023-03-01T02:00:33;12.87;;;5.50;;
13061;SDS011;6597;52.218;9.882;2023-03-01T02:03:00;9.70;;;6.07;;
13061;SDS011;6597;52.218;9.882;2023-03-01T02:05:32;14.90;;;6.00;;
13061;SDS011;6597;52.218;9.882;2023-03-01T02:08:03;9.10;;;5.60;;
13061;SDS011;6597;52.218;9.882;2023-03-01T02:10:30;9.37;;;5.37;;
13061;SDS011;6597;52.218;9.882;2023-03-01T02:12:59;12.17;;;5.43;;
13061;SDS011;6597;52.218;9.882;2023-03-01T02:15:26;8.00;;;4.90;;
13061;SDS011;6597;52.218;9.882;2023-03-01T02:17:54;9.33;;;5.57;;
13061;SDS011;6597;52.218;9.882;2023-03-01T02:20:23;9.60;;;5.60;;
13061;SDS011;6597;52.218;9.882;2023-03-01T02:22:57;8.07;;;5.27;;
13061;SDS011;6597;52.218;9.882;2023-03-01T02:25:32;12.77;;;6.17;;
13061;SDS011;6597;52.218;9.882;2023-03-01T02:28:06;10.63;;;5.97;;
13061;SDS011;6597;52.218;9.882;2023-03-01T02:30:39;7.10;;;5.00;;
13061;SDS011;6597;52.218;9.882;2023-03-01T02:33:26;8.67;;;5.17;;
13061;SDS011;6597;52.218;9.882;2023-03-01T02:35:52;6.60;;;4.33;;
13061;SDS011;6597;52.218;9.882;2023-03-01T02:38:21;8.97;;;4.47;;
13061;SDS011;6597;52.218;9.882;2023-03-01T02:40:49;7.73;;;5.30;;
13061;SDS011;6597;52.218;9.882;2023-03-01T02:43:17;9.33;;;4.77;;
13061;SDS011;6597;52.218;9.882;2023-03-01T02:45:51;7.70;;;4.80;;
13061;SDS011;6597;52.218;9.882;2023-03-01T02:48:19;8.33;;;5.13;;
13061;SDS011;6597;52.218;9.882;2023-03-01T02:50:52;9.03;;;5.17;;
13061;SDS011;6597;52.218;9.882;2023-03-01T02:53:28;18.80;;;5.07;;
13061;SDS011;6597;52.218;9.882;2023-03-01T02:56:02;7.97;;;5.10;;
13061;SDS011;6597;52.218;9.882;2023-03-01T02:58:28;13.10;;;4.83;;
13061;SDS011;6597;52.218;9.882;2023-03-01T03:00:56;8.33;;;5.20;;
13061;SDS011;6597;52.218;9.882;2023-03-01T03:03:26;7.67;;;4.10;;
13061;SDS011;6597;52.218;9.882;2023-03-01T03:05:53;9.13;;;4.60;;
13061;SDS011;6597;52.218;9.882;2023-03-01T03:08:20;9.23;;;5.20;;
13061;SDS011;6597;52.218;9.882;2023-03-01T03:10:49;15.90;;;4.77;;
13061;SDS011;6597;52.218;9.882;2023-03-01T03:13:16;6.67;;;4.37;;
13061;SDS011;6597;52.218;9.882;2023-03-01T03:15:44;6.47;;;4.13;;
13061;SDS011;6597;52.218;9.882;2023-03-01T03:18:14;9.20;;;5.07;;
13061;SDS011;6597;52.218;9.882;2023-03-01T03:20:43;8.50;;;4.57;;
13061;SDS011;6597;52.218;9.882;2023-03-01T03:23:10;8.23;;;4.57;;
13061;SDS011;6597;52.218;9.882;2023-03-01T03:25:37;6.70;;;4.73;;
13061;SDS011;6597;52.218;9.882;2023-03-01T03:28:04;8.13;;;4.30;;
13061;SDS011;6597;52.218;9.882;2023-03-01T03:30:35;11.60;;;4.67;;
13061;SDS011;6597;52.218;9.882;2023-03-01T03:33:04;5.87;;;3.93;;
13061;SDS011;6597;52.218;9.882;2023-03-01T03:35:33;8.63;;;4.53;;
13061;SDS011;6597;52.218;9.882;2023-03-01T03:38:05;7.37;;;4.10;;
13061;SDS011;6597;52.218;9.882;2023-03-01T03:40:35;5.93;;;4.03;;
13061;SDS011;6597;52.218;9.882;2023-03-01T03:43:03;6.33;;;4.57;;
13061;SDS011;6597;52.218;9.882;2023-03-01T03:45:31;8.47;;;4.70;;
13061;SDS011;6597;52.218;9.882;2023-03-01T03:47:58;7.53;;;4.90;;
13061;SDS011;6597;52.218;9.882;2023-03-01T03:50:25;7.60;;;4.70;;
13061;SDS011;6597;52.218;9.882;2023-03-01T03:52:53;8.83;;;4.53;;
13061;SDS011;6597;52.218;9.882;2023-03-01T03:55:19;7.77;;;4.43;;
13061;SDS011;6597;52.218;9.882;2023-03-01T03:57:47;8.57;;;4.13;;
13061;SDS011;6597;52.218;9.882;2023-03-01T04:00:17;9.50;;;4.43;;
13061;SDS011;6597;52.218;9.882;2023-03-01T04:02:45;6.20;;;4.63;;
13061;SDS011;6597;52.218;9.882;2023-03-01T04:05:13;6.70;;;4.27;;
13061;SDS011;6597;52.218;9.882;2023-03-01T04:07:42;6.73;;;5.07;;
13061;SDS011;6597;52.218;9.882;2023-03-01T04:10:12;8.07;;;4.57;;
13061;SDS011;6597;52.218;9.882;2023-03-01T04:12:40;6.70;;;3.77;;
13061;SDS011;6597;52.218;9.882;2023-03-01T04:15:08;6.90;;;3.63;;
13061;SDS011;6597;52.218;9.882;2023-03-01T04:17:38;7.03;;;4.50;;
13061;SDS011;6597;52.218;9.882;2023-03-01T04:20:05;6.73;;;4.70;;
13061;SDS011;6597;52.218;9.882;2023-03-01T04:22:34;6.47;;;4.17;;
13061;SDS011;6597;52.218;9.882;2023-03-01T04:25:01;7.10;;;4.07;;
13061;SDS011;6597;52.218;9.882;2023-03-01T04:27:29;9.27;;;4.90;;
13061;SDS011;6597;52.218;9.882;2023-03-01T04:29:55;8.37;;;4.20;;
13061;SDS011;6597;52.218;9.882;2023-03-01T04:32:22;7.17;;;4.30;;
13061;SDS011;6597;52.218;9.882;2023-03-01T04:34:49;10.43;;;5.40;;
13061;SDS011;6597;52.218;9.882;2023-03-01T04:37:15;9.27;;;4.50;;
13061;SDS011;6597;52.218;9.882;2023-03-01T04:39:42;7.60;;;4.30;;
13061;SDS011;6597;52.218;9.882;2023-03-01T04:42:10;8.70;;;4.50;;
13061;SDS011;6597;52.218;9.882;2023-03-01T04:44:38;9.43;;;5.20;;
13061;SDS011;6597;52.218;9.882;2023-03-01T04:47:05;12.00;;;4.67;;
13061;SDS011;6597;52.218;9.882;2023-03-01T04:49:31;9.10;;;4.80;;
13061;SDS011;6597;52.218;9.882;2023-03-01T04:51:58;5.97;;;4.20;;
13061;SDS011;6597;52.218;9.882;2023-03-01T04:54:27;9.53;;;5.20;;
13061;SDS011;6597;52.218;9.882;2023-03-01T04:56:53;7.27;;;4.50;;
13061;SDS011;6597;52.218;9.882;2023-03-01T04:59:20;9.60;;;4.53;;
13061;SDS011;6597;52.218;9.882;2023-03-01T05:01:49;10.43;;;4.73;;
13061;SDS011;6597;52.218;9.882;2023-03-01T05:04:15;12.37;;;5.47;;
13061;SDS011;6597;52.218;9.882;2023-03-01T05:06:42;7.10;;;4.83;;
13061;SDS011;6597;52.218;9.882;2023-03-01T05:09:09;6.93;;;4.30;;
13061;SDS011;6597;52.218;9.882;2023-03-01T05:11:36;10.20;;;4.93;;
13061;SDS011;6597;52.218;9.882;2023-03-01T05:14:02;5.40;;;3.63;;
13061;SDS011;6597;52.218;9.882;2023-03-01T05:16:29;16.23;;;5.13;;
13061;SDS011;6597;52.218;9.882;2023-03-01T05:18:58;9.07;;;4.97;;
13061;SDS011;6597;52.218;9.882;2023-03-01T05:21:25;9.97;;;4.27;;
13061;SDS011;6597;52.218;9.882;2023-03-01T05:23:52;10.60;;;4.87;;
13061;SDS011;6597;52.218;9.882;2023-03-01T05:26:19;8.30;;;4.87;;
13061;SDS011;6597;52.218;9.882;2023-03-01T05:28:47;9.33;;;4.37;;
13061;SDS011;6597;52.218;9.882;2023-03-01T05:31:14;11.93;;;4.37;;
13061;SDS011;6597;52.218;9.882;2023-03-01T05:33:41;7.30;;;4.70;;
13061;SDS011;6597;52.218;9.882;2023-03-01T05:36:10;9.13;;;5.00;;
13061;SDS011;6597;52.218;9.882;2023-03-01T05:38:36;9.50;;;5.23;;
13061;SDS011;6597;52.218;9.882;2023-03-01T05:41:03;18.33;;;5.27;;
13061;SDS011;6597;52.218;9.882;2023-03-01T05:43:30;9.23;;;5.60;;
13061;SDS011;6597;52.218;9.882;2023-03-01T05:45:59;8.87;;;5.07;;
13061;SDS011;6597;52.218;9.882;2023-03-01T05:48:25;10.30;;;5.33;;
13061;SDS011;6597;52.218;9.882;2023-03-01T05:50:52;10.23;;;5.40;;
13061;SDS011;6597;52.218;9.882;2023-03-01T05:53:20;14.00;;;5.70;;
13061;SDS011;6597;52.218;9.882;2023-03-01T05:55:46;8.63;;;5.90;;
13061;SDS011;6597;52.218;9.882;2023-03-01T05:58:16;10.97;;;5.37;;
13061;SDS011;6597;52.218;9.882;2023-03-01T06:00:44;9.30;;;6.07;;
13061;SDS011;6597;52.218;9.882;2023-03-01T06:03:14;7.97;;;5.00;;
13061;SDS011;6597;52.218;9.882;2023-03-01T06:05:41;9.33;;;5.50;;
13061;SDS011;6597;52.218;9.882;2023-03-01T06:08:09;8.37;;;5.17;;
13061;SDS011;6597;52.218;9.882;2023-03-01T06:10:37;12.57;;;5.07;;
13061;SDS011;6597;52.218;9.882;2023-03-01T06:13:04;14.40;;;5.27;;
13061;SDS011;6597;52.218;9.882;2023-03-01T06:15:31;17.40;;;5.87;;
13061;SDS011;6597;52.218;9.882;2023-03-01T06:17:57;9.13;;;4.87;;
13061;SDS011;6597;52.218;9.882;2023-03-01T06:20:25;12.90;;;5.30;;
13061;SDS011;6597;52.218;9.882;2023-03-01T06:22:52;11.50;;;5.43;;
13061;SDS011;6597;52.218;9.882;2023-03-01T06:25:20;10.67;;;5.10;;
13061;SDS011;6597;52.218;9.882;2023-03-01T06:27:49;9.20;;;4.87;;
13061;SDS011;6597;52.218;9.882;2023-03-01T06:30:17;9.73;;;5.70;;
13061;SDS011;6597;52.218;9.882;2023-03-01T06:32:45;10.67;;;4.80;;
13061;SDS011;6597;52.218;9.882;2023-03-01T06:35:13;10.00;;;6.07;;
13061;SDS011;6597;52.218;9.882;2023-03-01T06:37:42;16.33;;;5.73;;
13061;SDS011;6597;52.218;9.882;2023-03-01T06:40:10;12.80;;;6.13;;
13061;SDS011;6597;52.218;9.882;2023-03-01T06:42:39;10.03;;;6.17;;
13061;SDS011;6597;52.218;9.882;2023-03-01T06:45:09;10.63;;;5.63;;
13061;SDS011;6597;52.218;9.882;2023-03-01T06:47:36;11.93;;;6.57;;
13061;SDS011;6597;52.218;9.882;2023-03-01T06:50:03;8.70;;;6.10;;
13061;SDS011;6597;52.218;9.882;2023-03-01T06:52:30;11.13;;;5.73;;
13061;SDS011;6597;52.218;9.882;2023-03-01T06:54:57;10.97;;;5.77;;
13061;SDS011;6597;52.218;9.882;2023-03-01T06:57:23;11.17;;;6.17;;
13061;SDS011;6597;52.218;9.882;2023-03-01T06:59:50;18.43;;;6.00;;
13061;SDS011;6597;52.218;9.882;2023-03-01T07:02:18;10.40;;;5.90;;
13061;SDS011;6597;52.218;9.882;2023-03-01T07:04:44;12.60;;;6.50;;
13061;SDS011;6597;52.218;9.882;2023-03-01T07:07:11;9.17;;;5.50;;
13061;SDS011;6597;52.218;9.882;2023-03-01T07:09:38;7.33;;;4.97;;
13061;SDS011;6597;52.218;9.882;2023-03-01T07:12:04;6.57;;;4.93;;
13061;SDS011;6597;52.218;9.882;2023-03-01T07:14:31;10.33;;;5.57;;
13061;SDS011;6597;52.218;9.882;2023-03-01T07:16:58;11.07;;;5.70;;
13061;SDS011;6597;52.218;9.882;2023-03-01T07:19:26;22.90;;;9.50;;
13061;SDS011;6597;52.218;9.882;2023-03-01T07:21:52;35.90;;;15.73;;
13061;SDS011;6597;52.218;9.882;2023-03-01T07:24:20;33.73;;;13.73;;
13061;SDS011;6597;52.218;9.882;2023-03-01T07:26:48;27.33;;;11.40;;
13061;SDS011;6597;52.218;9.882;2023-03-01T07:29:15;17.30;;;10.10;;
13061;SDS011;6597;52.218;9.882;2023-03-01T07:31:42;13.73;;;8.00;;
13061;SDS011;6597;52.218;9.882;2023-03-01T07:34:09;11.40;;;6.60;;
13061;SDS011;6597;52.218;9.882;2023-03-01T07:36:37;10.43;;;6.33;;
13061;SDS011;6597;52.218;9.882;2023-03-01T07:39:04;14.63;;;7.00;;
13061;SDS011;6597;52.218;9.882;2023-03-01T07:41:31;13.83;;;6.43;;
13061;SDS011;6597;52.218;9.882;2023-03-01T07:43:57;15.33;;;6.80;;
13061;SDS011;6597;52.218;9.882;2023-03-01T07:46:24;11.93;;;6.57;;
13061;SDS011;6597;52.218;9.882;2023-03-01T07:48:50;8.20;;;5.43;;
13061;SDS011;6597;52.218;9.882;2023-03-01T07:51:17;6.90;;;4.33;;
13061;SDS011;6597;52.218;9.882;2023-03-01T07:53:46;10.80;;;4.70;;
13061;SDS011;6597;52.218;9.882;2023-03-01T07:56:13;9.60;;;4.83;;
13061;SDS011;6597;52.218;9.882;2023-03-01T07:58:43;7.27;;;5.17;;
13061;SDS011;6597;52.218;9.882;2023-03-01T08:01:10;8.07;;;5.00;;
13061;SDS011;6597;52.218;9.882;2023-03-01T08:03:39;10.07;;;5.83;;
13061;SDS011;6597;52.218;9.882;2023-03-01T08:06:07;17.33;;;5.53;;
13061;SDS011;6597;52.218;9.882;2023-03-01T08:08:35;10.10;;;5.13;;
13061;SDS011;6597;52.218;9.882;2023-03-01T08:11:04;8.27;;;5.53;;
13061;SDS011;6597;52.218;9.882;2023-03-01T08:13:33;13.50;;;7.40;;
13061;SDS011;6597;52.218;9.882;2023-03-01T08:16:00;10.70;;;6.83;;
13061;SDS011;6597;52.218;9.882;2023-03-01T08:18:28;17.73;;;7.80;;
13061;SDS011;6597;52.218;9.882;2023-03-01T08:20:55;13.33;;;7.40;;
13061;SDS011;6597;52.218;9.882;2023-03-01T08:23:21;11.63;;;6.00;;
13061;SDS011;6597;52.218;9.882;2023-03-01T08:25:48;11.80;;;5.87;;
13061;SDS011;6597;52.218;9.882;2023-03-01T08:28:16;10.07;;;5.63;;
13061;SDS011;6597;52.218;9.882;2023-03-01T08:30:42;8.80;;;5.50;;
13061;SDS011;6597;52.218;9.882;2023-03-01T08:33:09;10.43;;;5.10;;
13061;SDS011;6597;52.218;9.882;2023-03-01T08:35:35;9.47;;;5.30;;
13061;SDS011;6597;52.218;9.882;2023-03-01T08:38:02;10.47;;;5.97;;
13061;SDS011;6597;52.218;9.882;2023-03-01T08:40:28;12.03;;;5.80;;
13061;SDS011;6597;52.218;9.882;2023-03-01T08:42:55;13.83;;;6.43;;
13061;SDS011;6597;52.218;9.882;2023-03-01T08:45:23;8.10;;;5.30;;
13061;SDS011;6597;52.218;9.882;2023-03-01T08:47:51;8.47;;;5.70;;
13061;SDS011;6597;52.218;9.882;2023-03-01T08:50:18;7.83;;;5.77;;
13061;SDS011;6597;52.218;9.882;2023-03-01T08:52:44;10.77;;;7.30;;
13061;SDS011;6597;52.218;9.882;2023-03-01T08:55:11;11.57;;;6.30;;
13061;SDS011;6597;52.218;9.882;2023-03-01T08:57:40;15.03;;;6.13;;
13061;SDS011;6597;52.218;9.882;2023-03-01T09:00:07;11.23;;;6.83;;
13061;SDS011;6597;52.218;9.882;2023-03-01T09:02:36;12.37;;;6.40;;
13061;SDS011;6597;52.218;9.882;2023-03-01T09:05:04;10.97;;;6.37;;
13061;SDS011;6597;52.218;9.882;2023-03-01T09:07:30;10.97;;;6.57;;
13061;SDS011;6597;52.218;9.882;2023-03-01T09:09:57;13.40;;;5.60;;
13061;SDS011;6597;52.218;9.882;2023-03-01T09:12:23;10.73;;;6.30;;
13061;SDS011;6597;52.218;9.882;2023-03-01T09:14:51;9.27;;;5.00;;
13061;SDS011;6597;52.218;9.882;2023-03-01T09:17:17;13.80;;;6.10;;
13061;SDS011;6597;52.218;9.882;2023-03-01T09:19:48;11.33;;;6.60;;
13061;SDS011;6597;52.218;9.882;2023-03-01T09:22:14;9.30;;;5.73;;
13061;SDS011;6597;52.218;9.882;2023-03-01T09:24:41;15.93;;;7.03;;
13061;SDS011;6597;52.218;9.882;2023-03-01T09:27:08;16.10;;;6.90;;
13061;SDS011;6597;52.218;9.882;2023-03-01T09:29:35;11.03;;;6.20;;
13061;SDS011;6597;52.218;9.882;2023-03-01T09:32:05;10.87;;;6.33;;
13061;SDS011;6597;52.218;9.882;2023-03-01T09:34:33;15.70;;;6.63;;
13061;SDS011;6597;52.218;9.882;2023-03-01T09:37:21;9.53;;;5.63;;
13061;SDS011;6597;52.218;9.882;2023-03-01T09:39:48;9.37;;;5.20;;
13061;SDS011;6597;52.218;9.882;2023-03-01T09:42:14;10.87;;;5.87;;
13061;SDS011;6597;52.218;9.882;2023-03-01T09:44:43;8.57;;;5.67;;
13061;SDS011;6597;52.218;9.882;2023-03-01T09:47:16;10.30;;;4.63;;
13061;SDS011;6597;52.218;9.882;2023-03-01T09:49:55;8.87;;;5.17;;
13061;SDS011;6597;52.218;9.882;2023-03-01T09:52:28;8.90;;;4.83;;
13061;SDS011;6597;52.218;9.882;2023-03-01T09:54:59;8.60;;;5.07;;
13061;SDS011;6597;52.218;9.882;2023-03-01T09:57:28;11.03;;;5.43;;
13061;SDS011;6597;52.218;9.882;2023-03-01T10:03:02;6.27;;;4.23;;
13061;SDS011;6597;52.218;9.882;2023-03-01T10:05:41;7.17;;;4.50;;
13061;SDS011;6597;52.218;9.882;2023-03-01T10:08:23;18.37;;;4.70;;
13061;SDS011;6597;52.218;9.882;2023-03-01T10:10:56;9.40;;;5.03;;
13061;SDS011;6597;52.218;9.882;2023-03-01T10:13:25;10.77;;;4.73;;
13061;SDS011;6597;52.218;9.882;2023-03-01T10:15:56;7.90;;;4.37;;
13061;SDS011;6597;52.218;9.882;2023-03-01T10:18:27;7.40;;;4.10;;
13061;SDS011;6597;52.218;9.882;2023-03-01T10:20:58;6.13;;;4.23;;
13061;SDS011;6597;52.218;9.882;2023-03-01T10:23:28;7.47;;;3.77;;
13061;SDS011;6597;52.218;9.882;2023-03-01T10:26:07;8.70;;;3.87;;
13061;SDS011;6597;52.218;9.882;2023-03-01T10:28:50;6.10;;;3.87;;
13061;SDS011;6597;52.218;9.882;2023-03-01T10:31:26;5.07;;;3.53;;
13061;SDS011;6597;52.218;9.882;2023-03-01T10:34:02;7.47;;;3.90;;
13061;SDS011;6597;52.218;9.882;2023-03-01T10:36:28;6.10;;;3.43;;
13061;SDS011;6597;52.218;9.882;2023-03-01T10:39:00;15.67;;;7.53;;
13061;SDS011;6597;52.218;9.882;2023-03-01T10:41:40;13.83;;;4.73;;
13061;SDS011;6597;52.218;9.882;2023-03-01T10:44:34;6.33;;;3.73;;
13061;SDS011;6597;52.218;9.882;2023-03-01T10:47:08;5.33;;;3.43;;
13061;SDS011;6597;52.218;9.882;2023-03-01T10:49:43;5.13;;;3.30;;
13061;SDS011;6597;52.218;9.882;2023-03-01T10:52:20;7.90;;;3.93;;
13061;SDS011;6597;52.218;9.882;2023-03-01T10:54:52;5.33;;;3.20;;
13061;SDS011;6597;52.218;9.882;2023-03-01T10:57:27;6.70;;;3.93;;
13061;SDS011;6597;52.218;9.882;2023-03-01T11:02:47;6.90;;;3.90;;
13061;SDS011;6597;52.218;9.882;2023-03-01T11:05:19;6.53;;;3.93;;
13061;SDS011;6597;52.218;9.882;2023-03-01T11:07:50;5.80;;;3.83;;
13061;SDS011;6597;52.218;9.882;2023-03-01T11:10:21;4.67;;;3.00;;
13061;SDS011;6597;52.218;9.882;2023-03-01T11:12:50;6.13;;;3.47;;
13061;SDS011;6597;52.218;9.882;2023-03-01T11:15:21;6.27;;;3.80;;
13061;SDS011;6597;52.218;9.882;2023-03-01T11:17:50;4.93;;;3.53;;
13061;SDS011;6597;52.218;9.882;2023-03-01T11:20:19;5.40;;;3.83;;
13061;SDS011;6597;52.218;9.882;2023-03-01T11:22:52;4.67;;;3.20;;
13061;SDS011;6597;52.218;9.882;2023-03-01T11:25:23;7.27;;;3.77;;
13061;SDS011;6597;52.218;9.882;2023-03-01T11:27:51;7.17;;;3.07;;
13061;SDS011;6597;52.218;9.882;2023-03-01T11:30:20;6.93;;;3.17;;
13061;SDS011;6597;52.218;9.882;2023-03-01T11:32:52;5.40;;;3.13;;
13061;SDS011;6597;52.218;9.882;2023-03-01T11:35:27;3.57;;;2.83;;
13061;SDS011;6597;52.218;9.882;2023-03-01T11:37:57;4.07;;;2.70;;
13061;SDS011;6597;52.218;9.882;2023-03-01T11:40:32;7.13;;;3.40;;
13061;SDS011;6597;52.218;9.882;2023-03-01T11:43:04;9.57;;;3.50;;
13061;SDS011;6597;52.218;9.882;2023-03-01T11:45:39;5.80;;;3.10;;
13061;SDS011;6597;52.218;9.882;2023-03-01T11:51:12;4.63;;;3.07;;
13061;SDS011;6597;52.218;9.882;2023-03-01T11:53:48;4.20;;;3.23;;
13061;SDS011;6597;52.218;9.882;2023-03-01T11:56:26;3.67;;;2.67;;
13061;SDS011;6597;52.218;9.882;2023-03-01T11:59:11;8.57;;;2.67;;
13061;SDS011;6597;52.218;9.882;2023-03-01T12:02:14;5.93;;;2.67;;
13061;SDS011;6597;52.218;9.882;2023-03-01T12:05:05;3.67;;;2.80;;
13061;SDS011;6597;52.218;9.882;2023-03-01T12:07:48;5.30;;;2.93;;
13061;SDS011;6597;52.218;9.882;2023-03-01T12:10:22;6.40;;;3.20;;
13061;SDS011;6597;52.218;9.882;2023-03-01T12:13:02;6.23;;;3.20;;
13061;SDS011;6597;52.218;9.882;2023-03-01T12:21:41;7.57;;;3.37;;
13061;SDS011;6597;52.218;9.882;2023-03-01T12:24:18;4.47;;;2.77;;
13061;SDS011;6597;52.218;9.882;2023-03-01T12:27:13;4.97;;;2.90;;
13061;SDS011;6597;52.218;9.882;2023-03-01T12:30:05;5.43;;;2.93;;
13061;SDS011;6597;52.218;9.882;2023-03-01T12:32:47;6.10;;;2.63;;
13061;SDS011;6597;52.218;9.882;2023-03-01T12:35:29;8.83;;;3.03;;
13061;SDS011;6597;52.218;9.882;2023-03-01T12:38:14;6.73;;;3.17;;
13061;SDS011;6597;52.218;9.882;2023-03-01T12:41:09;8.10;;;2.73;;
13061;SDS011;6597;52.218;9.882;2023-03-01T12:43:47;4.03;;;2.63;;
13061;SDS011;6597;52.218;9.882;2023-03-01T12:46:31;4.80;;;3.00;;
13061;SDS011;6597;52.218;9.882;2023-03-01T12:49:13;4.77;;;2.90;;
13061;SDS011;6597;52.218;9.882;2023-03-01T12:51:42;7.53;;;3.53;;
13061;SDS011;6597;52.218;9.882;2023-03-01T12:54:19;5.90;;;3.13;;
13061;SDS011;6597;52.218;9.882;2023-03-01T12:56:51;5.17;;;2.93;;
13061;SDS011;6597;52.218;9.882;2023-03-01T12:59:20;4.20;;;2.97;;
13061;SDS011;6597;52.218;9.882;2023-03-01T13:01:55;4.40;;;3.03;;
13061;SDS011;6597;52.218;9.882;2023-03-01T13:04:33;6.67;;;3.30;;
13061;SDS011;6597;52.218;9.882;2023-03-01T13:07:13;7.13;;;3.40;;
13061;SDS011;6597;52.218;9.882;2023-03-01T13:09:47;7.80;;;3.60;;
13061;SDS011;6597;52.218;9.882;2023-03-01T13:15:26;5.83;;;2.63;;
13061;SDS011;6597;52.218;9.882;2023-03-01T13:17:59;4.10;;;2.70;;
13061;SDS011;6597;52.218;9.882;2023-03-01T13:20:29;5.50;;;2.50;;
13061;SDS011;6597;52.218;9.882;2023-03-01T13:23:03;4.13;;;2.70;;
13061;SDS011;6597;52.218;9.882;2023-03-01T13:25:32;7.40;;;2.93;;
13061;SDS011;6597;52.218;9.882;2023-03-01T13:31:03;5.13;;;2.63;;
13061;SDS011;6597;52.218;9.882;2023-03-01T13:33:41;5.13;;;2.97;;
13061;SDS011;6597;52.218;9.882;2023-03-01T13:41:57;6.13;;;3.27;;
13061;SDS011;6597;52.218;9.882;2023-03-01T13:44:26;5.20;;;3.70;;
13061;SDS011;6597;52.218;9.882;2023-03-01T13:46:58;10.03;;;2.60;;
13061;SDS011;6597;52.218;9.882;2023-03-01T13:49:29;4.70;;;2.97;;
13061;SDS011;6597;52.218;9.882;2023-03-01T13:52:02;3.57;;;2.37;;
13061;SDS011;6597;52.218;9.882;2023-03-01T13:54:29;4.80;;;2.53;;
13061;SDS011;6597;52.218;9.882;2023-03-01T13:56:59;3.93;;;2.47;;
13061;SDS011;6597;52.218;9.882;2023-03-01T13:59:27;3.77;;;2.43;;
13061;SDS011;6597;52.218;9.882;2023-03-01T14:01:56;4.40;;;2.37;;
13061;SDS011;6597;52.218;9.882;2023-03-01T14:04:25;3.03;;;2.23;;
13061;SDS011;6597;52.218;9.882;2023-03-01T14:09:47;4.23;;;2.70;;
13061;SDS011;6597;52.218;9.882;2023-03-01T14:12:21;4.80;;;2.33;;
13061;SDS011;6597;52.218;9.882;2023-03-01T14:14:59;3.00;;;2.03;;
13061;SDS011;6597;52.218;9.882;2023-03-01T14:17:37;3.20;;;2.17;;
13061;SDS011;6597;52.218;9.882;2023-03-01T14:20:16;4.90;;;2.43;;
13061;SDS011;6597;52.218;9.882;2023-03-01T14:22:45;3.00;;;2.17;;
13061;SDS011;6597;52.218;9.882;2023-03-01T14:25:19;3.33;;;2.37;;
13061;SDS011;6597;52.218;9.882;2023-03-01T14:27:51;3.67;;;2.10;;
13061;SDS011;6597;52.218;9.882;2023-03-01T14:30:22;4.67;;;2.30;;
13061;SDS011;6597;52.218;9.882;2023-03-01T14:32:52;4.13;;;2.20;;
13061;SDS011;6597;52.218;9.882;2023-03-01T14:35:21;6.90;;;2.20;;
13061;SDS011;6597;52.218;9.882;2023-03-01T14:37:50;6.37;;;2.47;;
13061;SDS011;6597;52.218;9.882;2023-03-01T14:40:22;3.53;;;2.23;;
13061;SDS011;6597;52.218;9.882;2023-03-01T14:42:50;4.17;;;2.33;;
13061;SDS011;6597;52.218;9.882;2023-03-01T14:45:18;4.60;;;2.47;;
13061;SDS011;6597;52.218;9.882;2023-03-01T14:47:45;4.50;;;2.40;;
13061;SDS011;6597;52.218;9.882;2023-03-01T14:50:16;12.83;;;2.27;;
13061;SDS011;6597;52.218;9.882;2023-03-01T14:52:48;5.50;;;2.03;;
13061;SDS011;6597;52.218;9.882;2023-03-01T14:55:18;3.20;;;2.17;;
13061;SDS011;6597;52.218;9.882;2023-03-01T14:57:48;5.47;;;2.07;;
13061;SDS011;6597;52.218;9.882;2023-03-01T15:00:17;2.40;;;1.57;;
13061;SDS011;6597;52.218;9.882;2023-03-01T15:02:46;3.13;;;2.10;;
13061;SDS011;6597;52.218;9.882;2023-03-01T15:05:14;7.40;;;2.23;;
13061;SDS011;6597;52.218;9.882;2023-03-01T15:07:44;3.07;;;1.57;;
13061;SDS011;6597;52.218;9.882;2023-03-01T15:10:16;4.13;;;1.73;;
13061;SDS011;6597;52.218;9.882;2023-03-01T15:12:48;3.10;;;1.70;;
13061;SDS011;6597;52.218;9.882;2023-03-01T15:15:23;3.50;;;2.00;;
13061;SDS011;6597;52.218;9.882;2023-03-01T15:17:58;3.93;;;1.90;;
13061;SDS011;6597;52.218;9.882;2023-03-01T15:20:27;2.80;;;1.97;;
13061;SDS011;6597;52.218;9.882;2023-03-01T15:22:56;1.97;;;1.53;;
13061;SDS011;6597;52.218;9.882;2023-03-01T15:25:24;2.83;;;1.80;;
13061;SDS011;6597;52.218;9.882;2023-03-01T15:27:54;3.03;;;1.90;;
13061;SDS011;6597;52.218;9.882;2023-03-01T15:30:23;3.33;;;1.93;;
13061;SDS011;6597;52.218;9.882;2023-03-01T15:35:45;4.27;;;2.23;;
13061;SDS011;6597;52.218;9.882;2023-03-01T15:38:24;2.33;;;1.80;;
13061;SDS011;6597;52.218;9.882;2023-03-01T15:40:57;3.10;;;2.10;;
13061;SDS011;6597;52.218;9.882;2023-03-01T15:43:39;2.60;;;2.20;;
13061;SDS011;6597;52.218;9.882;2023-03-01T15:46:19;3.37;;;2.17;;